Tiempo atmosférico en la estación meteorológica de Barco De Avila, Ávila (1012 m.)



Fecha
DESCASC
Temp. máxima en grados centígrados (hora)
DESCASC
Temp. mínima en grados centígrados (hora)
DESCASC
Temp. media en grados centígrados
DESCASC
Racha de viento máxima en m/sg (hora)
DESCASC
Velocidad máxima media en intervalos de 10 minutos(hora)
DESCASC
Precipitaciones diarias en mm
DESCASC
Precipitaciones de 00:00 a 06:00 en mm
DESCASC
Precipitaciones de 06:00 a 12:00 en mm
DESCASC
Precipitaciones de 12:00 a 18:00 en mm
DESCASC
Precipitaciones de 18:00 a 24:00 en mm
DESCASC
22-04-2019 15.6 (16:20) 1.9 (08:00) 8.8 11.94 (22:20) 8.06 (17:00) 0 0 0 0 0
21-04-2019 13.1 (13:10) 4.9 (07:10) 9 9.72 (14:00) 5.56 (14:00) 0 0 0 0 0
20-04-2019 19.2 (17:30) 8.2 (08:30) 13.7 16.67 (11:20) 8.61 (11:30) 0 0 0 0 0
19-04-2019 12.3 (16:20) 4.3 (08:20) 8.3 8.61 (15:50) 5.28 (15:50) 0.8 0.2 0 0.2 0.4
18-04-2019 11.9 (13:30) 4.9 (00:00) 8.4 8.89 (13:40) 5.28 (13:50) 2 1.8 0 0 0.2
17-04-2019 15.9 (16:20) 7.5 (00:00) 11.7 18.61 (01:50) 13.33 (01:50) 4.4 0 0 0 4.4
16-04-2019 18.2 (16:50) 1.8 (00:00) 10 11.94 (23:40) 7.78 (23:59) 0 0 0 0 0
15-04-2019 18.2 (13:30) 8.6 (00:00) 13.4 14.44 (12:30) 8.61 (12:30) 0.2 0 0 0 0.2
14-04-2019 19.6 (15:50) 4.2 (00:00) 11.9 7.22 (16:50) 3.33 (16:50) 0 0 0 0 0
13-04-2019 18.7 (17:50) 0.8 (00:00) 9.8 8.06 (16:40) 4.44 (19:00) 0 0 0 0 0
12-04-2019 14.5 (17:30) -1.6 (-00:0) 6.4 7.22 (16:20) 3.89 (16:20) 0 0 0 0 0
11-04-2019 12.4 (17:20) -0.7 (-00:0) 5.8 8.33 (15:30) 4.17 (16:50) 0 0 0 0 0
10-04-2019 11.8 (17:40) 1.6 (00:00) 6.7 13.61 (18:00) 7.22 (18:00) 9.8 0.2 0 0.2 9.4
09-04-2019 9.6 (14:20) 3.8 (00:00) 6.7 11.11 (09:50) 7.22 (09:50) 2.4 0 1.4 0.6 0.4
08-04-2019 12.2 (14:50) 3.8 (00:00) 8 11.39 (19:00) 7.5 (19:40) 3.8 2.4 0 0 1.4
07-04-2019 8.7 (14:50) 1.6 (00:00) 5.1 10.83 (18:10) 6.94 (15:40) 0.2 0.2 0 0 0
06-04-2019 7.4 (16:20) 0.2 (00:00) 3.8 11.94 (14:10) 8.06 (14:30) 1.4 0 0.6 0.2 0.6
05-04-2019 5.7 (18:00) 0.3 (00:00) 3 12.22 (06:10) 7.78 (06:10) 10.4 2 3 3 2.4
04-04-2019 11.2 (15:20) -6.5 (-00:0) 2.3 11.11 (18:50) 7.22 (18:40) 0.4 0 0 0 0.4
03-04-2019 10.9 (16:20) 0.3 (00:00) 5.6 9.72 (14:10) 5.56 (14:10) 0 0 0 0 0
02-04-2019 15 (13:20) 3.5 (00:00) 9.3 8.06 (18:40) 4.72 (18:00) 0 0 0 0 0
01-04-2019 14.8 (15:40) 1.6 (00:00) 8.2 10 (17:20) 6.39 (17:20) 1 0 0 0 1
31-03-2019 14.3 (12:10) 0.4 (00:00) 7.4 8.89 (14:10) 4.72 (18:30) 4.4 0 0 4.4 0
30-03-2019 18.1 (14:00) 0.3 (00:00) 9.2 9.72 (20:40) 5.56 (08:10) 0 0 0 0 0
29-03-2019 17.9 (16:50) 0.1 (00:00) 9 8.61 (10:30) 4.72 (11:30) 0 0 0 0 0
28-03-2019 17.2 (16:40) -2.2 (-00:0) 7.5 8.06 (14:20) 4.72 (13:10) 0 0 0 0 0
27-03-2019 17.3 (15:50) -0.3 (00:00) 8.5 9.17 (16:20) 5.83 (06:50) 0 0 0 0 0
26-03-2019 20 (16:30) -4.4 (-00:0) 7.8 10.83 (19:00) 6.39 (18:10) 0 0 0 0 0
25-03-2019 18 (14:40) 1.3 (00:00) 9.6 11.39 (15:20) 5.56 (15:20) 0 0 0 0 0

Gráficas

Temp. máximas Temp. mínimas Temp. medias Precipitaciones Rachas de viento máximas Velocidades máximas media en intervalos de 10 minutos

Datos horarios

Fecha y hora oficial Temperatura (ºC) Velocidad del viento (km/h) Dirección del viento Racha (km/h) Dirección de racha Precipitación (mm) Presión (hPa) Tendencia (hPa) Humedad (%)
2019-04-23 23:00:00 2.1 7 Norte 15 Norte 0.8 -- -- 93
2019-04-23 22:00:00 1.8 5 Nordeste 12 Este 0.4 -- -- 92
2019-04-23 21:00:00 2.1 7 Nordeste 17 Sur 1.4 -- -- 91
2019-04-23 20:00:00 3.3 9 Norte 21 Noroeste 0 -- -- 88
2019-04-23 19:00:00 4.8 9 Oeste 23 Sudoeste 0.2 -- -- 82
2019-04-23 18:00:00 4.8 12 Oeste 26 Oeste 0.2 -- -- 82
2019-04-23 17:00:00 4.2 11 Oeste 35 Sudoeste 0.6 -- -- 85
2019-04-23 16:00:00 4.9 14 Sudoeste 35 Sudoeste 0.4 -- -- 86
2019-04-23 15:00:00 5.2 19 Sudoeste 37 Sudoeste 0 -- -- 82
2019-04-23 14:00:00 4.9 21 Sudoeste 40 Oeste 0 -- -- 84
2019-04-23 13:00:00 5.9 18 Oeste 40 Sudoeste 0 -- -- 74
2019-04-23 12:00:00 6.8 17 Sudoeste 35 Sudoeste 0 -- -- 62
2019-04-23 11:00:00 5.4 11 Sudoeste 29 Sudoeste 0 -- -- 69
2019-04-23 10:00:00 4.5 10 Oeste 42 Sudoeste 0 -- -- 81
2019-04-23 09:00:00 4.3 28 Oeste 42 Oeste 0 -- -- 84
2019-04-23 08:00:00 4.3 22 Oeste 33 Oeste 0 -- -- 86
2019-04-23 07:00:00 4.5 21 Sudoeste 45 Sudoeste 0.8 -- -- 86
2019-04-23 06:00:00 4.9 26 Sudoeste 42 Oeste 0.8 -- -- 85
2019-04-23 05:00:00 6.6 23 Sudoeste 37 Sudoeste 0.4 -- -- 86
2019-04-23 04:00:00 7.5 25 Sudoeste 36 Sudoeste 0 -- -- 73
2019-04-23 03:00:00 8.1 26 Sudoeste 40 Sudoeste 0.2 -- -- 78
2019-04-23 02:00:00 8.3 11 Sudoeste 37 Sudoeste 0 -- -- 81
2019-04-23 01:00:00 9 28 Sudoeste 42 Sudoeste 0 -- -- 79
2019-04-23 00:00:00 10.3 22 Sudoeste 41 Sudoeste 0 -- -- 70
2019-04-22 23:00:00 11 27 Sudoeste 43 Sudoeste 0 -- -- 73
2019-04-22 22:00:00 12.2 24 Sudoeste 40 Sudoeste 0 -- -- 64
2019-04-22 21:00:00 12.6 17 Sudoeste 31 Sudoeste 0 -- -- 59
2019-04-22 20:00:00 13.3 19 Sudoeste 33 Oeste 0 -- -- 54
2019-04-22 19:00:00 13.9 21 Sudoeste 39 Sudoeste 0 -- -- 51
2019-04-22 18:00:00 14.7 24 Sudoeste 40 Sudoeste 0 -- -- 51
2019-04-22 17:00:00 15.4 29 Sudoeste 41 Sudoeste 0 -- -- 51
2019-04-22 16:00:00 14.2 28 Sudoeste 39 Sudoeste 0 -- -- 53
2019-04-22 15:00:00 14.8 12 Sudoeste 20 Oeste 0 -- -- 54
2019-04-22 14:00:00 14.1 10 Oeste 23 Oeste 0 -- -- 50
2019-04-22 13:00:00 13.8 11 Norte 23 Nordeste 0 -- -- 50
2019-04-22 12:00:00 13.3 7 Este 17 Sudeste 0 -- -- 57
2019-04-22 11:00:00 11.6 5 Nordeste 16 Este 0 -- -- 63
2019-04-22 10:00:00 7.7 0 Calma 5 Sudeste 0 -- -- 79
2019-04-22 09:00:00 3.9 3 Oeste 9 Oeste 0 -- -- 86
2019-04-22 08:00:00 1.9 8 Sudoeste 10 Sudoeste 0 -- -- 89
2019-04-22 07:00:00 2.1 6 Sudoeste 10 Sudoeste 0 -- -- 88
2019-04-22 06:00:00 3.5 5 Sudoeste 8 Oeste 0 -- -- 86
2019-04-22 05:00:00 4.9 0 Calma 6 Oeste 0 -- -- 83
2019-04-22 04:00:00 5.5 5 Oeste 6 Oeste 0 -- -- 81
2019-04-22 03:00:00 5.8 5 Sudoeste 9 Sudoeste 0 -- -- 80
2019-04-22 02:00:00 6.2 6 Sudoeste 9 Oeste 0 -- -- 81
2019-04-22 01:00:00 6.4 0 Calma 6 Nordeste 0 -- -- 77
2019-04-22 00:00:00 9 2 Norte 10 Norte 0 -- -- 69
2019-04-21 23:00:00 9.5 5 Norte 9 Nordeste 0 -- -- 67
2019-04-21 22:00:00 9.9 2 Nordeste 11 Nordeste 0 -- -- 65
2019-04-21 21:00:00 10.6 5 Norte 16 Nordeste 0 -- -- 61
2019-04-21 20:00:00 11.3 9 Nordeste 24 Nordeste 0 -- -- 61
2019-04-21 19:00:00 11.8 8 Nordeste 27 Norte 0 -- -- 55
2019-04-21 18:00:00 12.6 10 Nordeste 27 Norte 0 -- -- 51
2019-04-21 17:00:00 12.5 14 Nordeste 28 Nordeste 0 -- -- 53
2019-04-21 16:00:00 12.7 15 Nordeste 27 Norte 0 -- -- 52
2019-04-21 15:00:00 11.7 11 Nordeste 30 Nordeste 0 -- -- 56
2019-04-21 14:00:00 12 20 Nordeste 35 Nordeste 0 -- -- 52
2019-04-21 13:00:00 12.6 12 Nordeste 27 Norte 0 -- -- 54
2019-04-21 12:00:00 11.5 12 Norte 24 Norte 0 -- -- 56
2019-04-21 11:00:00 10.5 11 Norte 23 Norte 0 -- -- 63
2019-04-21 10:00:00 8.6 7 Norte 11 Norte 0 -- -- 74
2019-04-21 09:00:00 6.1 5 Este 6 Este 0 -- -- 81
2019-04-21 08:00:00 5 3 Sudoeste 5 Sur 0 -- -- 84
2019-04-21 07:00:00 5.1 3 Sudoeste 9 Oeste 0 -- -- 79
2019-04-21 06:00:00 6.7 8 Oeste 13 Oeste 0 -- -- 75
2019-04-21 05:00:00 7.3 12 Sudoeste 24 Sudeste 0 -- -- 74
2019-04-21 04:00:00 8.6 12 Sudeste 29 Sudeste 0 -- -- 67
2019-04-21 03:00:00 9.3 14 Sudeste 27 Sudeste 0 -- -- 65
2019-04-21 02:00:00 9.9 10 Sudeste 33 Sudeste 0 -- -- 63
2019-04-21 01:00:00 10 6 Sudoeste 21 Sudeste 0 -- -- 62
2019-04-21 00:00:00 11.4 8 Sudeste 26 Sudeste 0 -- -- 57
2019-04-20 23:00:00 11.7 6 Sudoeste 11 Norte 0 -- -- 59
2019-04-20 22:00:00 13.4 5 Norte 14 Nordeste 0 -- -- 51
2019-04-20 21:00:00 15.2 8 Este 36 Nordeste 0 -- -- 45
2019-04-20 20:00:00 17.6 17 Nordeste 31 Nordeste 0 -- -- 38
2019-04-20 19:00:00 18.1 14 Nordeste 31 Norte 0 -- -- 36
2019-04-20 18:00:00 18.3 14 Nordeste 33 Nordeste 0 -- -- 38
2019-04-20 17:00:00 19.1 17 Nordeste 30 Norte 0 -- -- 39
2019-04-20 16:00:00 18 16 Nordeste 30 Nordeste 0 -- -- 39
2019-04-20 15:00:00 17.1 15 Nordeste 32 Nordeste 0 -- -- 40
2019-04-20 14:00:00 17.8 16 Norte 37 Norte 0 -- -- 46
2019-04-20 13:00:00 17 17 Norte 37 Este 0 -- -- 49
2019-04-20 12:00:00 17.3 12 Norte 60 Sudeste 0 -- -- 47
2019-04-20 11:00:00 16.4 16 Este 36 Sudeste 0 -- -- 40
2019-04-20 10:00:00 13.4 5 Noroeste 14 Norte 0 -- -- 50
2019-04-20 09:00:00 10.1 8 Norte 18 Sur 0 -- -- 66
2019-04-20 08:00:00 8.4 8 Sudeste 17 Este 0 -- -- 74
2019-04-20 07:00:00 9.7 7 Este 24 Sudeste 0 -- -- 69
2019-04-20 06:00:00 9.8 12 Sudeste 21 Sudeste 0 -- -- 70
2019-04-20 05:00:00 10 11 Este 32 Este 0 -- -- 69
2019-04-20 04:00:00 9.9 14 Este 29 Este 0 -- -- 68
2019-04-20 03:00:00 9.9 22 Este 36 Este 0 -- -- 72
2019-04-20 02:00:00 10 17 Nordeste 30 Nordeste 0 -- -- 73
2019-04-20 01:00:00 10.1 18 Nordeste 31 Nordeste 0 -- -- 75
2019-04-20 00:00:00 8.8 9 Norte 19 Norte 0.2 -- -- 89
2019-04-19 23:00:00 8.7 5 Nordeste 14 Este 0 -- -- 89
2019-04-19 22:00:00 9.7 6 Este 12 Nordeste 0 -- -- 80
2019-04-19 21:00:00 10.4 6 Nordeste 9 Nordeste 0 -- -- 72
2019-04-19 20:00:00 10.8 5 Nordeste 21 Sudeste 0.2 -- -- 71
2019-04-19 19:00:00 11.3 10 Sudeste 21 Este 0 -- -- 69
2019-04-19 18:00:00 11.9 11 Este 24 Sudeste 0 -- -- 65
2019-04-19 17:00:00 12.1 16 Este 27 Sudeste 0 -- -- 62
2019-04-19 16:00:00 11.8 15 Este 31 Este 0 -- -- 65
2019-04-19 15:00:00 11.4 15 Nordeste 27 Norte 0 -- -- 64
2019-04-19 14:00:00 11.1 4 Sudoeste 10 Oeste 0 -- -- 69
2019-04-19 13:00:00 10.4 5 Norte 12 Norte 0.2 -- -- 72
2019-04-19 12:00:00 10.5 4 Norte 10 Norte 0 -- -- 75
2019-04-19 11:00:00 9.7 2 Sudeste 10 Sudoeste 0 -- -- 77
2019-04-19 10:00:00 7.7 7 Oeste 17 Sudoeste 0 -- -- 84
2019-04-19 09:00:00 4.8 5 Sudoeste 8 Sudoeste 0 -- -- 94
2019-04-19 08:00:00 4.6 3 Sur 10 Sudoeste 0 -- -- 92
2019-04-19 07:00:00 6 6 Sudoeste 12 Sudoeste 0 -- -- 91
2019-04-19 06:00:00 6.2 5 Sudoeste 7 Sudoeste 0 -- -- 92
2019-04-19 05:00:00 6.6 0 Calma -- -- 0 -- -- 92
2019-04-19 04:00:00 6.6 0 Calma -- -- 0 -- -- 91
2019-04-19 03:00:00 6.7 0 Calma -- -- 0 -- -- 89
2019-04-19 02:00:00 6.6 2 Este 6 Este 0.2 -- -- 88
2019-04-19 01:00:00 7 4 Este 7 Este 0 -- -- 85
2019-04-19 00:00:00 7.3 2 Este 11 Nordeste 0.2 -- -- 87
2019-04-18 23:00:00 7.5 4 Norte 9 Norte 0 -- -- 81
2019-04-18 22:00:00 7.8 0 Calma 7 Este 0 -- -- 83
2019-04-18 21:00:00 8.5 4 Oeste 8 Sudoeste 0 -- -- 81
2019-04-18 20:00:00 9.5 6 Sur 15 Sudeste 0 -- -- 74
2019-04-18 19:00:00 10.1 6 Este 17 Nordeste 0 -- -- 68
2019-04-18 18:00:00 10.4 8 Nordeste 22 Nordeste 0 -- -- 69
2019-04-18 17:00:00 10.7 9 Nordeste 19 Nordeste 0 -- -- 69
2019-04-18 16:00:00 10.7 12 Nordeste 31 Este 0 -- -- 74
2019-04-18 15:00:00 11.5 17 Este 25 Este 0 -- -- 69
2019-04-18 14:00:00 9.8 16 Este 32 Este 0 -- -- 74
2019-04-18 13:00:00 11.6 7 Norte 14 Norte 0 -- -- 68
2019-04-18 12:00:00 10.2 4 Nordeste 8 Nordeste 0 -- -- 72
2019-04-18 11:00:00 8.8 0 Calma 8 Oeste 0 -- -- 81
2019-04-18 10:00:00 7.3 5 Oeste 9 Oeste 0 -- -- 87
2019-04-18 09:00:00 4.9 2 Sudeste 6 Sudoeste 0 -- -- 92
2019-04-18 08:00:00 5.2 6 Este 10 Este 0 -- -- 90
2019-04-18 07:00:00 5.8 6 Sudoeste 19 Oeste 0 -- -- 89
2019-04-18 06:00:00 6.9 12 Oeste 20 Oeste 0 -- -- 89
2019-04-18 05:00:00 6.6 3 Sudoeste 21 Oeste 0.2 -- -- 91
2019-04-18 04:00:00 6.9 13 Oeste 24 Oeste 0.2 -- -- 89
2019-04-18 03:00:00 7 14 Sudoeste 27 Sudoeste 0.2 -- -- 87
2019-04-18 02:00:00 7.3 15 Sudoeste 31 Sudoeste 0.4 -- -- 86
2019-04-18 01:00:00 7.6 14 Sudoeste 26 Sudoeste 0.8 -- -- 88
2019-04-18 00:00:00 7.6 8 Sudoeste 22 Sudoeste 0.6 -- -- 86
2019-04-17 23:00:00 7.8 10 Sudoeste 39 Sudoeste 1 -- -- 86
2019-04-17 22:00:00 8 28 Sudoeste 50 Sudoeste 1.8 -- -- 87
2019-04-17 21:00:00 11.9 32 Sur 57 Sur 0.4 -- -- 74
2019-04-17 20:00:00 11.9 28 Sur 62 Sudoeste 0.6 -- -- 73
2019-04-17 19:00:00 13.2 39 Sur 63 Sudeste 0 -- -- 60
2019-04-17 18:00:00 14.3 35 Sur 53 Sur 0 -- -- 55
2019-04-17 17:00:00 15 31 Sur 58 Sur 0 -- -- 52
2019-04-17 16:00:00 15.5 37 Sur 59 Sur 0 -- -- 47
2019-04-17 15:00:00 14.7 40 Sur 62 Sur 0 -- -- 48
2019-04-17 14:00:00 14.9 36 Sur 59 Sur 0 -- -- 46
2019-04-17 13:00:00 15.4 29 Sur 52 Sur 0 -- -- 42
2019-04-17 12:00:00 15 26 Sur 51 Sur 0 -- -- 42
2019-04-17 11:00:00 14.2 27 Sur 52 Sudoeste 0 -- -- 48
2019-04-17 10:00:00 13.7 31 Sur 48 Sur 0 -- -- 48
2019-04-17 09:00:00 12.5 24 Sur 42 Sur 0 -- -- 57
2019-04-17 08:00:00 12.4 27 Sur 49 Sudoeste 0 -- -- 60
2019-04-17 07:00:00 12.7 22 Sur 44 Sur 0 -- -- 56
2019-04-17 06:00:00 12.7 24 Sur 44 Sur 0 -- -- 51
2019-04-17 05:00:00 13.1 31 Sur 44 Sur 0 -- -- 48
2019-04-17 04:00:00 13.3 28 Sur 44 Sur 0 -- -- 46
2019-04-17 03:00:00 13.7 31 Sur 64 Sur 0 -- -- 45
2019-04-17 02:00:00 14.7 41 Sur 67 Sur 0 -- -- 41
2019-04-17 01:00:00 15.7 38 Sur 51 Sur 0 -- -- 40
2019-04-17 00:00:00 15 28 Sur 43 Sur 0 -- -- 42
2019-04-16 23:00:00 13.4 5 Sudoeste 17 Sur 0 -- -- 47
2019-04-16 22:00:00 12.6 2 Este 10 Norte 0 -- -- 52
2019-04-16 21:00:00 14.2 5 Sudeste 24 Sur 0 -- -- 43
2019-04-16 20:00:00 15.4 13 Sur 26 Sur 0 -- -- 40
2019-04-16 19:00:00 17.2 10 Sur 26 Sur 0 -- -- 32
2019-04-16 18:00:00 17.9 14 Sur 31 Sur 0 -- -- 26
2019-04-16 17:00:00 18.1 19 Sur 27 Sur 0 -- -- 30
2019-04-16 16:00:00 17.7 16 Sur 28 Sur 0 -- -- 37
2019-04-16 15:00:00 17.4 15 Sur 30 Sur 0 -- -- 37
2019-04-16 14:00:00 16.4 10 Sudoeste 25 Sudoeste 0 -- -- 43
2019-04-16 13:00:00 15.8 6 Noroeste 16 Noroeste 0 -- -- 47
2019-04-16 12:00:00 14.1 5 Este 12 Este 0 -- -- 46
2019-04-16 11:00:00 10.7 4 Sur 14 Sudoeste 0 -- -- 60
2019-04-16 10:00:00 7.5 9 Sur 17 Sudoeste 0 -- -- 77
2019-04-16 09:00:00 3.3 11 Sudoeste 22 Sudoeste 0 -- -- 88
2019-04-16 08:00:00 2.2 11 Sudoeste 22 Sur 0 -- -- 89
2019-04-16 07:00:00 2.2 7 Sur 14 Sudoeste 0 -- -- 89
2019-04-16 06:00:00 2.9 7 Sudoeste 13 Sudoeste 0 -- -- 91
2019-04-16 05:00:00 4.2 9 Sudoeste 17 Sudoeste 0 -- -- 89
2019-04-16 04:00:00 4.4 4 Sudeste 8 Este 0 -- -- 89
2019-04-16 03:00:00 6.5 0 Calma 9 Sudeste 0 -- -- 88
2019-04-16 02:00:00 7 2 Noroeste 13 Nordeste 0 -- -- 85
2019-04-16 01:00:00 7.9 6 Este 14 Nordeste 0 -- -- 83
2019-04-16 00:00:00 8.7 6 Nordeste 13 Este 0 -- -- 80
2019-04-15 23:00:00 8.6 5 Norte 13 Este 0 -- -- 79
2019-04-15 22:00:00 9.1 3 Norte 28 Norte 0.2 -- -- 81
2019-04-15 21:00:00 10.8 8 Noroeste 16 Noroeste 0 -- -- 68
2019-04-15 20:00:00 11.1 3 Norte 23 Oeste 0 -- -- 62
2019-04-15 19:00:00 11.6 14 Oeste 45 Sudoeste 0 -- -- 62
2019-04-15 18:00:00 10.7 30 Sudoeste 51 Sudoeste 0 -- -- 76
2019-04-15 17:00:00 15.1 22 Oeste 42 Sudoeste 0 -- -- 52
2019-04-15 16:00:00 16.1 28 Sudoeste 49 Oeste 0 -- -- 52
2019-04-15 15:00:00 16.4 29 Sudoeste 47 Oeste 0 -- -- 57
2019-04-15 14:00:00 18.1 22 Sudoeste 51 Sur 0 -- -- 45
2019-04-15 13:00:00 17.7 27 Sur 52 Sur 0 -- -- 48
2019-04-15 12:00:00 16.7 28 Sur 44 Sur 0 -- -- 59
2019-04-15 11:00:00 15.4 22 Sur 39 Sur 0 -- -- 66
2019-04-15 10:00:00 15.3 22 Sur 42 Sur 0 -- -- 66
2019-04-15 09:00:00 15 19 Sur 34 Sur 0 -- -- 67
2019-04-15 08:00:00 13.5 17 Sur 26 Sur 0 -- -- 73
2019-04-15 07:00:00 10.1 3 Norte 8 Sudoeste 0 -- -- 83
2019-04-15 06:00:00 9.8 4 Oeste 10 Este 0 -- -- 84
2019-04-15 05:00:00 10.2 3 Oeste 9 Sudeste 0 -- -- 83
2019-04-15 04:00:00 10.2 4 Sudoeste 9 Sur 0 -- -- 83
2019-04-15 03:00:00 10.4 2 Este 15 Sudoeste 0 -- -- 83
2019-04-15 02:00:00 10.5 6 Oeste 10 Oeste 0 -- -- 82
2019-04-15 01:00:00 11 5 Sur 9 Sudoeste 0 -- -- 81
2019-04-15 00:00:00 12.4 0 Calma 10 Sudoeste 0 -- -- 77
2019-04-14 23:00:00 13.7 6 Oeste 16 Oeste 0 -- -- 73
2019-04-14 22:00:00 14.5 9 Sudoeste 18 Oeste 0 -- -- 69
2019-04-14 21:00:00 15.8 9 Oeste 14 Sudoeste 0 -- -- 65
2019-04-14 20:00:00 17 7 Oeste 17 Noroeste 0 -- -- 62
2019-04-14 19:00:00 17.7 10 Norte 22 Norte 0 -- -- 59
2019-04-14 18:00:00 18.1 6 Noroeste 21 Norte 0 -- -- 58
2019-04-14 17:00:00 18.7 12 Norte 26 Noroeste 0 -- -- 54
2019-04-14 16:00:00 19.5 10 Norte 25 Nordeste 0 -- -- 50
2019-04-14 15:00:00 18.5 8 Norte 19 Norte 0 -- -- 54
2019-04-14 14:00:00 17.8 7 Norte 21 Nordeste 0 -- -- 52
2019-04-14 13:00:00 17.1 8 Norte 17 Norte 0 -- -- 56
2019-04-14 12:00:00 15.5 9 Nordeste 16 Norte 0 -- -- 58
2019-04-14 11:00:00 12.8 3 Noroeste 6 Norte 0 -- -- 67
2019-04-14 10:00:00 8.9 3 Sudoeste 9 Sudoeste 0 -- -- 74
2019-04-14 09:00:00 5.6 8 Oeste 13 Sudoeste 0 -- -- 83
2019-04-14 08:00:00 4.5 5 Sudoeste 10 Sudoeste 0 -- -- 84
2019-04-14 07:00:00 4.6 7 Oeste 10 Sudoeste 0 -- -- 85
2019-04-14 06:00:00 4.5 5 Oeste 8 Sudoeste 0 -- -- 83
2019-04-14 05:00:00 5.5 3 Oeste 7 Sudoeste 0 -- -- 80
2019-04-14 04:00:00 6.1 3 Sur 10 Sudoeste 0 -- -- 79
2019-04-14 03:00:00 6.6 6 Sudoeste 9 Oeste 0 -- -- 78
2019-04-14 02:00:00 7.9 4 Oeste 6 Oeste 0 -- -- 73
2019-04-14 01:00:00 8.8 3 Sudeste 8 Sudoeste 0 -- -- 71
2019-04-14 00:00:00 10 3 Sur 12 Oeste 0 -- -- 63
2019-04-13 23:00:00 12.8 7 Oeste 15 Oeste 0 -- -- 54
2019-04-13 22:00:00 13.2 9 Oeste 19 Sudoeste 0 -- -- 52
2019-04-13 21:00:00 14.5 9 Oeste 19 Oeste 0 -- -- 46
2019-04-13 20:00:00 16.7 13 Sudoeste 26 Sudoeste 0 -- -- 40
2019-04-13 19:00:00 18 16 Sudoeste 23 Sudoeste 0 -- -- 36
2019-04-13 18:00:00 18.6 9 Oeste 24 Sudoeste 0 -- -- 35
2019-04-13 17:00:00 18.5 12 Noroeste 29 Norte 0 -- -- 36
2019-04-13 16:00:00 18.2 10 Noroeste 23 Norte 0 -- -- 28
2019-04-13 15:00:00 17.6 7 Nordeste 20 Nordeste 0 -- -- 27
2019-04-13 14:00:00 16.7 4 Este 11 Nordeste 0 -- -- 24
2019-04-13 13:00:00 15.4 6 Nordeste 15 Sudeste 0 -- -- 35
2019-04-13 12:00:00 13 4 Noroeste 13 Norte 0 -- -- 44
2019-04-13 11:00:00 10.5 0 Calma 11 Sudoeste 0 -- -- 50
2019-04-13 10:00:00 7 9 Sudoeste 15 Sudoeste 0 -- -- 58
2019-04-13 09:00:00 3.1 11 Sudoeste 15 Sudoeste 0 -- -- 74
2019-04-13 08:00:00 1.5 0 Calma 17 Sudoeste 0 -- -- 79
2019-04-13 07:00:00 1.4 12 Sudoeste 18 Sudoeste 0 -- -- 80
2019-04-13 06:00:00 1.5 10 Sudoeste 19 Sudoeste 0 -- -- 79
2019-04-13 05:00:00 1.5 12 Sudoeste 18 Sudoeste 0 -- -- 80
2019-04-13 04:00:00 1.2 11 Oeste 17 Sudoeste 0 -- -- 82
2019-04-13 03:00:00 1.6 14 Sudoeste 18 Sudoeste 0 -- -- 82
2019-04-13 02:00:00 2.4 9 Sudoeste 17 Oeste 0 -- -- 79
2019-04-13 01:00:00 3.9 10 Sudoeste 14 Sudoeste 0 -- -- 74
2019-04-13 00:00:00 4.2 10 Sudoeste 13 Sudoeste -- -- -- 74
2019-04-12 23:00:00 5.7 4 Oeste 9 Sudoeste 0 -- -- 68
2019-04-12 22:00:00 8.1 5 Oeste 8 Sudoeste 0 -- -- 60
2019-04-12 21:00:00 11.7 3 Norte 13 Norte 0 -- -- 45
2019-04-12 20:00:00 13.6 6 Norte 19 Norte 0 -- -- 38
2019-04-12 19:00:00 14.2 7 Norte 26 Norte 0 -- -- 40
2019-04-12 18:00:00 14.5 7 Norte 26 Norte 0 -- -- 39
2019-04-12 17:00:00 14.2 9 Norte 26 Norte 0 -- -- 41
2019-04-12 16:00:00 13.9 11 Noroeste 24 Nordeste 0 -- -- 45
2019-04-12 15:00:00 13.3 10 Norte 24 Noroeste 0 -- -- 45
2019-04-12 14:00:00 12.8 11 Nordeste 21 Norte 0 -- -- 43
2019-04-12 13:00:00 11.8 8 Nordeste 22 Norte 0 -- -- 47
2019-04-12 12:00:00 10.7 9 Nordeste 21 Nordeste 0 -- -- 44
2019-04-12 11:00:00 9 4 Este 9 Oeste 0 -- -- 60
2019-04-12 10:00:00 4.1 7 Oeste 15 Sudoeste 0 -- -- 73
2019-04-12 09:00:00 0.1 11 Sudoeste 18 Oeste 0 -- -- 82
2019-04-12 08:00:00 -1.2 11 Sudoeste 16 Sudoeste 0 -- -- 85
2019-04-12 07:00:00 -1.3 12 Sudoeste 17 Sudoeste 0 -- -- 86
2019-04-12 06:00:00 -1.2 11 Sudoeste 15 Sudoeste 0 -- -- 87
2019-04-12 05:00:00 -0.8 11 Sudoeste 17 Sudoeste 0 -- -- 88
2019-04-12 04:00:00 -0.4 13 Sudoeste 17 Sudoeste 0 -- -- 86
2019-04-12 03:00:00 0.5 11 Sudoeste 15 Sudoeste 0 -- -- 82
2019-04-12 02:00:00 0.7 9 Sudoeste 12 Sudoeste 0 -- -- 84
2019-04-12 01:00:00 1.4 8 Sudoeste 15 Sudoeste 0 -- -- 82
2019-04-12 00:00:00 2.8 10 Sudoeste 14 Sudoeste 0 -- -- 78
2019-04-11 23:00:00 4 5 Oeste 8 Sudoeste 0 -- -- 75
2019-04-11 22:00:00 6.7 2 Este 6 Este 0 -- -- 62
2019-04-11 21:00:00 8.6 3 Norte 15 Nordeste 0 -- -- 56
2019-04-11 20:00:00 10.1 10 Nordeste 23 Norte 0 -- -- 49
2019-04-11 19:00:00 11.4 10 Nordeste 30 Norte 0 -- -- 44
2019-04-11 18:00:00 11.4 10 Nordeste 29 Norte 0 -- -- 43
2019-04-11 17:00:00 11.6 13 Norte 27 Norte 0 -- -- 47
2019-04-11 16:00:00 12.1 13 Norte 30 Norte 0 -- -- 43
2019-04-11 15:00:00 11.4 13 Norte 26 Norte 0 -- -- 50
2019-04-11 14:00:00 11.1 9 Norte 23 Noroeste 0 -- -- 54
2019-04-11 13:00:00 9.6 8 Noroeste 17 Noroeste 0 -- -- 57
2019-04-11 12:00:00 8.8 5 Oeste 12 Este 0 -- -- 62
2019-04-11 11:00:00 6.9 2 Oeste 10 Sudoeste 0 -- -- 71
2019-04-11 10:00:00 3.5 7 Sudoeste 10 Sudoeste 0 -- -- 89
2019-04-11 09:00:00 1.1 2 Sudoeste 10 Sudoeste 0 -- -- 95
2019-04-11 08:00:00 -0.7 6 Sudoeste 11 Sudoeste 0 -- -- 95
2019-04-11 07:00:00 -0.2 3 Este 14 Oeste 0 -- -- 94
2019-04-11 06:00:00 0.5 6 Oeste 9 Sudoeste 0 -- -- 95
2019-04-11 05:00:00 1 8 Sudoeste 10 Sudoeste 0 -- -- 95
2019-04-11 04:00:00 0.8 4 Sudoeste 10 Sudoeste 0 -- -- 95
2019-04-11 03:00:00 0.6 6 Oeste 10 Oeste 0 -- -- 95
2019-04-11 02:00:00 0.6 0 Calma 10 Oeste 0 -- -- 94
2019-04-11 01:00:00 1.3 4 Sudoeste 6 Sudoeste 0 -- -- 93
2019-04-11 00:00:00 1.6 5 Oeste 10 Sudeste 0 -- -- 92
2019-04-10 23:00:00 1.8 0 Calma 9 Oeste 0.2 -- -- 93
2019-04-10 22:00:00 1.8 4 Este 9 Este 0 -- -- 92
2019-04-10 21:00:00 1.7 5 Sur 13 Sur 0.4 -- -- 91
2019-04-10 20:00:00 2.3 8 Sur 18 Norte 5 -- -- 87
2019-04-10 19:00:00 3.8 7 Norte 38 Este 3.8 -- -- 88
2019-04-10 18:00:00 7.5 26 Nordeste 49 Nordeste 0 -- -- 70
2019-04-10 17:00:00 11 17 Noroeste 33 Noroeste 0 -- -- 58
2019-04-10 16:00:00 10.6 17 Noroeste 39 Noroeste 0 -- -- 59
2019-04-10 15:00:00 9.5 14 Noroeste 31 Noroeste 0.2 -- -- 61
2019-04-10 14:00:00 8.4 14 Noroeste 31 Noroeste 0 -- -- 71
2019-04-10 13:00:00 6.7 14 Noroeste 32 Noroeste 0 -- -- 80
2019-04-10 12:00:00 6.7 11 Noroeste 27 Norte 0 -- -- 79
2019-04-10 11:00:00 5.5 7 Norte 18 Noroeste 0 -- -- 81
2019-04-10 10:00:00 4.8 5 Este 14 Este 0 -- -- 85
2019-04-10 09:00:00 3.7 7 Nordeste 14 Norte 0 -- -- 88
2019-04-10 08:00:00 3.7 5 Nordeste 10 Noroeste 0 -- -- 83
2019-04-10 07:00:00 4.2 2 Noroeste 21 Oeste 0 -- -- 79
2019-04-10 06:00:00 4.1 5 Norte 16 Norte 0 -- -- 81
2019-04-10 05:00:00 4.4 4 Este 14 Este 0 -- -- 83
2019-04-10 04:00:00 4.4 4 Este 18 Oeste 0 -- -- 80
2019-04-10 03:00:00 4.3 4 Nordeste 22 Noroeste 0 -- -- 83
2019-04-10 02:00:00 4.8 8 Noroeste 29 Noroeste 0.2 -- -- 77
2019-04-10 01:00:00 5.4 17 Noroeste 38 Oeste 0 -- -- 76
2019-04-10 00:00:00 5.7 6 Noroeste 18 Noroeste 0 -- -- 78
2019-04-09 23:00:00 6.1 12 Noroeste 31 Norte 0 -- -- 75
2019-04-09 22:00:00 5.1 4 Sudeste 14 Este 0 -- -- 87
2019-04-09 21:00:00 5.5 7 Este 23 Norte 0.4 -- -- 87
2019-04-09 20:00:00 6.9 6 Este 24 Noroeste 0 -- -- 77
2019-04-09 19:00:00 8.6 8 Este 15 Nordeste 0 -- -- 67
2019-04-09 18:00:00 7.2 10 Nordeste 31 Norte 0.6 -- -- 78
2019-04-09 17:00:00 8.8 13 Noroeste 30 Noroeste 0 -- -- 61
2019-04-09 16:00:00 8.6 8 Noroeste 31 Noroeste 0 -- -- 67
2019-04-09 15:00:00 9.1 12 Norte 34 Oeste 0 -- -- 58
2019-04-09 14:00:00 9 14 Oeste 34 Noroeste 0 -- -- 60
2019-04-09 13:00:00 5.8 8 Oeste 23 Sur 0 -- -- 74
2019-04-09 12:00:00 4.9 10 Sudoeste 39 Sudoeste 1 -- -- 87
2019-04-09 11:00:00 5.8 24 Sudoeste 38 Sudoeste 0.2 -- -- 83
2019-04-09 10:00:00 5.1 24 Sudoeste 40 Sudoeste 0 -- -- 82
2019-04-09 09:00:00 4.1 19 Sudoeste 30 Oeste 0 -- -- 87
2019-04-09 08:00:00 4.1 19 Sudoeste 28 Sudoeste 0.2 -- -- 89
2019-04-09 07:00:00 4.2 11 Oeste 32 Sudoeste 0 -- -- 86
2019-04-09 06:00:00 4.3 17 Sudoeste 24 Sudoeste 0 -- -- 82
2019-04-09 05:00:00 3.9 10 Sudoeste 18 Sudoeste 0 -- -- 83
2019-04-09 04:00:00 4.4 12 Sudoeste 19 Sudoeste 0 -- -- 83
2019-04-09 03:00:00 4.6 8 Sudoeste 17 Sudoeste 0 -- -- 82
2019-04-09 02:00:00 4.4 5 Sudeste 15 Sudoeste 0 -- -- 86
2019-04-09 01:00:00 4 6 Sudeste 12 Sudeste 0 -- -- 89
2019-04-09 00:00:00 4 0 Calma 9 Sur 0 -- -- 91
2019-04-08 23:00:00 4.6 6 Sudoeste 8 Oeste 0.2 -- -- 90
2019-04-08 22:00:00 5.5 4 Sudeste 10 Este 0 -- -- 85
2019-04-08 21:00:00 5.9 4 Sudeste 21 Oeste 0.2 -- -- 84
2019-04-08 20:00:00 5.9 14 Oeste 38 Sudoeste 1 -- -- 83
2019-04-08 19:00:00 10.6 25 Sudoeste 41 Sudoeste 0 -- -- 59
2019-04-08 18:00:00 11.6 22 Sudoeste 39 Sudoeste 0 -- -- 47
2019-04-08 17:00:00 12.1 23 Sudoeste 36 Sudoeste 0 -- -- 51
2019-04-08 16:00:00 12.1 20 Oeste 32 Sudoeste 0 -- -- 50
2019-04-08 15:00:00 12.1 19 Sudoeste 35 Sudoeste 0 -- -- 52
2019-04-08 14:00:00 11.5 19 Sudoeste 32 Sudoeste 0 -- -- 53
2019-04-08 13:00:00 10.5 19 Sudoeste 33 Sudoeste 0 -- -- 62
2019-04-08 12:00:00 9.6 22 Oeste 36 Sudoeste 0 -- -- 59
2019-04-08 11:00:00 8.8 23 Sudoeste 36 Sudoeste 0 -- -- 65
2019-04-08 10:00:00 8.4 14 Sudoeste 28 Sur 0 -- -- 67
2019-04-08 09:00:00 6.8 12 Sudoeste 18 Sudoeste 0 -- -- 86
2019-04-08 08:00:00 7.1 6 Sudoeste 13 Oeste 0 -- -- 85
2019-04-08 07:00:00 7.5 5 Noroeste 18 Sudoeste 0 -- -- 86
2019-04-08 06:00:00 7.5 11 Sudoeste 35 Sudoeste 1.8 -- -- 88
2019-04-08 05:00:00 7 13 Sudoeste 32 Sudoeste 0.6 -- -- 89
2019-04-08 04:00:00 7.9 22 Sudoeste 35 Sudoeste 0 -- -- 77
2019-04-08 03:00:00 7.2 15 Sudoeste 33 Sudoeste 0 -- -- 85
2019-04-08 02:00:00 7.2 19 Sudoeste 31 Oeste 0 -- -- 85
2019-04-08 01:00:00 6.9 16 Sudoeste 30 Sudoeste 0 -- -- 90
2019-04-08 00:00:00 6.7 12 Sudoeste 25 Sudoeste 0 -- -- 93
2019-04-07 23:00:00 6.2 17 Sudoeste 27 Sudoeste 0 -- -- 94
2019-04-07 22:00:00 6 18 Sudoeste 28 Sudoeste 0 -- -- 93
2019-04-07 21:00:00 5.9 15 Oeste 33 Sudoeste 0 -- -- 91
2019-04-07 20:00:00 6.5 19 Sudoeste 29 Sudoeste 0 -- -- 86
2019-04-07 19:00:00 6.5 18 Oeste 39 Oeste 0 -- -- 83
2019-04-07 18:00:00 6.6 22 Oeste 38 Oeste 0 -- -- 82
2019-04-07 17:00:00 7.2 20 Oeste 36 Oeste 0 -- -- 75
2019-04-07 16:00:00 7 24 Oeste 39 Oeste 0 -- -- 74
2019-04-07 15:00:00 8.6 19 Sudoeste 30 Oeste 0 -- -- 58
2019-04-07 14:00:00 8.5 15 Sudoeste 27 Oeste 0 -- -- 65
2019-04-07 13:00:00 7.6 13 Sudoeste 22 Sudoeste 0 -- -- 65
2019-04-07 12:00:00 6.7 3 Este 16 Este 0 -- -- 67
2019-04-07 11:00:00 6.1 6 Este 13 Nordeste 0 -- -- 71
2019-04-07 10:00:00 3.8 6 Este 13 Nordeste 0 -- -- 80
2019-04-07 09:00:00 2.2 3 Sur 13 Norte 0 -- -- 82
2019-04-07 08:00:00 2.2 5 Norte 10 Norte 0 -- -- 81
2019-04-07 07:00:00 1.7 2 Este 25 Oeste 0 -- -- 86
2019-04-07 06:00:00 2.6 11 Noroeste 21 Oeste 0 -- -- 80
2019-04-07 05:00:00 3 9 Noroeste 24 Noroeste 0 -- -- 80
2019-04-07 04:00:00 3.2 14 Oeste 28 Noroeste -- -- -- 72
2019-04-07 03:00:00 2.5 5 Oeste 23 Noroeste 0 -- -- 83
2019-04-07 02:00:00 2 12 Sudoeste 22 Sudoeste 0.2 -- -- 89
2019-04-07 01:00:00 2.5 9 Oeste 14 Oeste 0 -- -- 88
2019-04-07 00:00:00 2.7 10 Sudoeste 15 Sudoeste 0 -- -- 84
2019-04-06 23:00:00 2.6 5 Sur 8 Sudoeste 0 -- -- 84
2019-04-06 22:00:00 2.9 3 Este 21 Noroeste 0 -- -- 81
2019-04-06 21:00:00 2.8 2 Sudoeste 20 Sudeste 0 -- -- 81
2019-04-06 20:00:00 3.5 10 Sudoeste 20 Sudeste 0 -- -- 82
2019-04-06 19:00:00 3.1 8 Sudeste 16 Sudoeste 0.6 -- -- 88
2019-04-06 18:00:00 3.2 8 Sudoeste 34 Oeste 0.2 -- -- 85
2019-04-06 17:00:00 6.2 15 Sudoeste 37 Sudoeste 0 -- -- 59
2019-04-06 16:00:00 5.4 15 Sur 41 Sur 0 -- -- 72
2019-04-06 15:00:00 4.2 21 Sur 43 Sur 0 -- -- 73
2019-04-06 14:00:00 4.2 23 Sur 39 Sur 0 -- -- 74
2019-04-06 13:00:00 4.4 18 Sudoeste 37 Sur 0 -- -- 84
2019-04-06 12:00:00 3.3 13 Sur 32 Sudoeste 0.2 -- -- 80
2019-04-06 11:00:00 2.6 13 Sudoeste 35 Sudoeste 0 -- -- 83
2019-04-06 10:00:00 2 15 Oeste 31 Oeste 0.2 -- -- 90
2019-04-06 09:00:00 1.8 7 Sudoeste 24 Sudoeste 0.2 -- -- 90
2019-04-06 08:00:00 1.6 10 Sudoeste 27 Oeste 0 -- -- 88
2019-04-06 07:00:00 1.7 15 Sudoeste 26 Sudoeste 0 -- -- 85
2019-04-06 06:00:00 0.5 10 Sudoeste 15 Sudoeste 0 -- -- 92
2019-04-06 05:00:00 0.3 5 Sudoeste 13 Sudoeste 0 -- -- 91
2019-04-06 04:00:00 1 5 Sudoeste 16 Sur 0 -- -- 89
2019-04-06 03:00:00 0.8 0 Calma 8 Sur 0 -- -- 91
2019-04-06 02:00:00 1.1 5 Sur 12 Sudoeste 0 -- -- 89
2019-04-06 01:00:00 1.3 3 Norte 10 Sudeste 0 -- -- 89
2019-04-06 00:00:00 0.9 4 Sudoeste 10 Sudoeste 0 -- -- 93
2019-04-05 23:00:00 0.9 4 Norte 17 Este 1.2 -- -- 93
2019-04-05 22:00:00 0.8 9 Noroeste 17 Norte 1.2 -- -- 92
2019-04-05 21:00:00 2.9 8 Oeste 14 Oeste 0 -- -- 87
2019-04-05 20:00:00 3 10 Oeste 23 Sudoeste 0 -- -- 85
2019-04-05 19:00:00 3.4 20 Sudoeste 30 Sudoeste 0 -- -- 81
2019-04-05 18:00:00 5.7 8 Sudoeste 19 Sudoeste 0 -- -- 59
2019-04-05 17:00:00 3.5 6 Norte 15 Norte 0 -- -- 77
2019-04-05 16:00:00 1.8 5 Este 36 Oeste 1 -- -- 90
2019-04-05 15:00:00 5.2 4 Oeste 12 Sudoeste 0 -- -- 81
2019-04-05 14:00:00 2.8 6 Este 14 Este 0.2 -- -- 86
2019-04-05 13:00:00 1.3 9 Nordeste 19 Nordeste 1.8 -- -- 90
2019-04-05 12:00:00 0.5 9 Nordeste 15 Este 2.4 -- -- 94
2019-04-05 11:00:00 0.7 10 Norte 25 Norte 0.2 -- -- 92
2019-04-05 10:00:00 1.6 13 Norte 22 Norte 0.2 -- -- 91
2019-04-05 09:00:00 2.5 5 Sudoeste 18 Oeste 0 -- -- 90
2019-04-05 08:00:00 2.4 10 Sudoeste 28 Sudoeste 0.2 -- -- 88
2019-04-05 07:00:00 2.4 22 Sudoeste 44 Sudoeste 0 -- -- 88
2019-04-05 06:00:00 2.3 26 Sudoeste 43 Sudoeste 0.2 -- -- 89
2019-04-05 05:00:00 2.9 17 Sudoeste 38 Sudoeste 0 -- -- 85
2019-04-05 04:00:00 1.8 16 Sudoeste 39 Sudoeste 1.2 -- -- 90
2019-04-05 03:00:00 1.9 22 Sudoeste 37 Sudoeste 0.4 -- -- 90
2019-04-05 02:00:00 2 16 Oeste 28 Sudoeste 0.2 -- -- 90
2019-04-05 01:00:00 2.3 22 Sudoeste 32 Oeste 0 -- -- 89
2019-04-05 00:00:00 2.5 22 Sudoeste 36 Oeste 0.2 -- -- 88
2019-04-04 23:00:00 3.5 9 Sur 31 Sudoeste 0.2 -- -- 79
2019-04-04 22:00:00 5.6 16 Sudoeste 33 Sur 0 -- -- 56
2019-04-04 21:00:00 7.4 21 Sudoeste 34 Sudoeste 0 -- -- 40
2019-04-04 20:00:00 8.2 19 Sudoeste 37 Sudoeste 0 -- -- 38
2019-04-04 19:00:00 9.4 26 Oeste 40 Sudoeste 0 -- -- 38
2019-04-04 18:00:00 9.9 20 Sudoeste 35 Oeste 0 -- -- 35
2019-04-04 17:00:00 10.3 22 Sudoeste 38 Oeste 0 -- -- 35
2019-04-04 16:00:00 11 18 Oeste 33 Oeste 0 -- -- 34
2019-04-04 15:00:00 11.1 14 Sudoeste 25 Sudoeste 0 -- -- 34
2019-04-04 14:00:00 10.2 7 Oeste 21 Oeste 0 -- -- 31
2019-04-04 13:00:00 8.7 6 Noroeste 14 Norte 0 -- -- 34
2019-04-04 12:00:00 7.1 4 Nordeste 12 Nordeste 0 -- -- 36
2019-04-04 11:00:00 4.3 0 Calma 8 Sur 0 -- -- 55
2019-04-04 10:00:00 -0.4 3 Sudoeste 6 Sudoeste 0 -- -- 75
2019-04-04 09:00:00 -4.5 0 Calma 5 Sudoeste 0 -- -- 84
2019-04-04 08:00:00 -6.2 5 Sudoeste 7 Sudoeste 0 -- -- 87
2019-04-04 07:00:00 -5.2 3 Oeste 5 Oeste 0 -- -- 85
2019-04-04 06:00:00 -4.5 0 Calma 10 Este 0 -- -- 79
2019-04-04 05:00:00 -3.7 6 Este 10 Nordeste 0 -- -- 80
2019-04-04 04:00:00 -2.4 3 Este 7 Sudeste 0 -- -- 75
2019-04-04 03:00:00 -0.5 5 Norte 8 Noroeste 0 -- -- 70
2019-04-04 02:00:00 1 0 Calma 9 Este 0 -- -- 62
2019-04-04 01:00:00 1.1 3 Este 9 Este 0 -- -- 63
2019-04-04 00:00:00 0.5 3 Este 5 Norte 0 -- -- 68
2019-04-03 23:00:00 2.4 2 Norte 9 Norte 0 -- -- 60
2019-04-03 22:00:00 4.9 4 Norte 14 Noroeste 0 -- -- 52
2019-04-03 21:00:00 6.4 5 Norte 25 Norte 0 -- -- 46
2019-04-03 20:00:00 8.6 13 Norte 29 Norte 0 -- -- 38
2019-04-03 19:00:00 10.2 12 Noroeste 24 Noroeste 0 -- -- 37
2019-04-03 18:00:00 10.8 10 Noroeste 32 Norte 0 -- -- 36
2019-04-03 17:00:00 10.6 15 Norte 30 Norte 0 -- -- 41
2019-04-03 16:00:00 10.5 13 Norte 28 Norte 0 -- -- 43
2019-04-03 15:00:00 9.7 15 Norte 35 Norte 0 -- -- 46
2019-04-03 14:00:00 8.9 17 Norte 33 Norte 0 -- -- 52
2019-04-03 13:00:00 8.5 13 Norte 25 Norte 0 -- -- 56
2019-04-03 12:00:00 7.1 10 Norte 21 Norte 0 -- -- 67
2019-04-03 11:00:00 5 9 Norte 18 Nordeste 0 -- -- 75
2019-04-03 10:00:00 4.3 9 Norte 19 Nordeste 0 -- -- 83
2019-04-03 09:00:00 2.2 4 Este 6 Oeste 0 -- -- 90
2019-04-03 08:00:00 1.2 3 Oeste 8 Sudoeste 0 -- -- 91
2019-04-03 07:00:00 0.4 2 Este 9 Oeste 0 -- -- 91
2019-04-03 06:00:00 0.7 5 Oeste 8 Oeste 0 -- -- 90
2019-04-03 05:00:00 1.2 4 Sudoeste 8 Sudoeste 0 -- -- 87
2019-04-03 04:00:00 2 5 Sudoeste 12 Sudoeste 0 -- -- 85
2019-04-03 03:00:00 3.6 8 Oeste 10 Sudoeste 0 -- -- 82
2019-04-03 02:00:00 5.6 2 Norte 10 Sudoeste 0 -- -- 75
2019-04-03 01:00:00 8 8 Nordeste 14 Este 0 -- -- 66
2019-04-03 00:00:00 8.6 4 Noroeste 19 Norte 0 -- -- 67
2019-04-02 23:00:00 9.3 0 Calma 12 Oeste 0 -- -- 67
2019-04-02 22:00:00 9.6 3 Este 13 Oeste 0 -- -- 60
2019-04-02 21:00:00 12.8 6 Oeste 19 Noroeste 0 -- -- 49
2019-04-02 20:00:00 13.7 12 Noroeste 22 Noroeste 0 -- -- 50
2019-04-02 19:00:00 13.7 11 Noroeste 29 Noroeste 0 -- -- 52
2019-04-02 18:00:00 14.4 17 Oeste 28 Oeste 0 -- -- 49
2019-04-02 17:00:00 13.9 12 Noroeste 25 Noroeste 0 -- -- 50
2019-04-02 16:00:00 13.8 15 Noroeste 27 Noroeste 0 -- -- 47
2019-04-02 15:00:00 14 9 Noroeste 22 Noroeste 0 -- -- 44
2019-04-02 14:00:00 14.6 10 Norte 23 Norte 0 -- -- 43
2019-04-02 13:00:00 14.4 6 Norte 19 Este 0 -- -- 45
2019-04-02 12:00:00 12.9 4 Este 9 Nordeste 0 -- -- 59
2019-04-02 11:00:00 8.6 5 Oeste 11 Sudoeste 0 -- -- 83
2019-04-02 10:00:00 5.7 6 Sudoeste 12 Oeste 0 -- -- 90
2019-04-02 09:00:00 3.7 5 Sudoeste 11 Oeste 0 -- -- 93
2019-04-02 08:00:00 4.1 9 Sudoeste 12 Sudoeste 0 -- -- 91
2019-04-02 07:00:00 4.5 8 Sudoeste 10 Sudoeste 0 -- -- 91
2019-04-02 06:00:00 4.7 5 Sudoeste 9 Sudoeste 0 -- -- 92
2019-04-02 05:00:00 4.8 7 Sudoeste 12 Oeste 0 -- -- 90
2019-04-02 04:00:00 5.3 5 Sudoeste 9 Oeste 0 -- -- 89
2019-04-02 03:00:00 5.4 3 Sudoeste 8 Sudoeste 0 -- -- 89
2019-04-02 02:00:00 6.6 4 Sudoeste 9 Sudoeste 0 -- -- 87
2019-04-02 01:00:00 7.7 2 Sudoeste 14 Nordeste 0 -- -- 83
2019-04-02 00:00:00 8.2 7 Nordeste 11 Noroeste 0 -- -- 82
2019-04-01 23:00:00 8.1 0 Calma 16 Sur 0 -- -- 85
2019-04-01 22:00:00 8.1 6 Sur 13 Sur 0 -- -- 81
2019-04-01 21:00:00 8.2 6 Sur 14 Sudoeste 0 -- -- 81
2019-04-01 20:00:00 8.4 9 Sudoeste 17 Sur 0.8 -- -- 85
2019-04-01 19:00:00 9.5 7 Oeste 21 Sudeste 0.2 -- -- 80
2019-04-01 18:00:00 10.9 15 Sudeste 36 Este 0 -- -- 62
2019-04-01 17:00:00 12.5 8 Sudeste 30 Este 0 -- -- 55
2019-04-01 16:00:00 13.8 20 Sudoeste 27 Sudoeste 0 -- -- 56
2019-04-01 15:00:00 13.5 14 Oeste 30 Sudoeste 0 -- -- 55
2019-04-01 14:00:00 14.1 8 Norte 22 Norte 0 -- -- 47
2019-04-01 13:00:00 12.9 6 Norte 16 Norte 0 -- -- 52
2019-04-01 12:00:00 12.6 4 Nordeste 10 Este 0 -- -- 57
2019-04-01 11:00:00 8.9 5 Este 9 Este 0 -- -- 75
2019-04-01 10:00:00 5 5 Oeste 12 Sudoeste 0 -- -- 88
2019-04-01 09:00:00 2.5 8 Sudoeste 12 Sudoeste 0 -- -- 91
2019-04-01 08:00:00 1.6 5 Oeste 12 Oeste 0 -- -- 91
2019-04-01 07:00:00 2 6 Sudoeste 13 Sudoeste 0 -- -- 90
2019-04-01 06:00:00 3.3 7 Sudoeste 13 Sudoeste 0 -- -- 87
2019-04-01 05:00:00 4.1 6 Sur 16 Oeste 0 -- -- 85
2019-04-01 04:00:00 4.2 9 Sudoeste 16 Sudoeste 0 -- -- 84
2019-04-01 03:00:00 4.2 9 Sudoeste 19 Sudoeste 0 -- -- 85
2019-04-01 02:00:00 3.5 9 Sudoeste 22 Sudoeste 0 -- -- 85
2019-04-01 01:00:00 4.8 12 Sudoeste 18 Sudoeste 0 -- -- 80
2019-04-01 00:00:00 6.4 11 Sudoeste 17 Oeste 0 -- -- 77
2019-03-31 23:00:00 7.4 11 Sudoeste 18 Oeste 0 -- -- 74
2019-03-31 22:00:00 8 6 Sur 18 Oeste 0 -- -- 72
2019-03-31 21:00:00 9.1 4 Sudoeste 6 Sudoeste 0 -- -- 68
2019-03-31 20:00:00 11.2 5 Oeste 15 Este 0 -- -- 59
2019-03-31 19:00:00 11.3 9 Nordeste 29 Este 0 -- -- 59
2019-03-31 18:00:00 13.2 6 Nordeste 13 Nordeste 0 -- -- 51
2019-03-31 17:00:00 12.3 8 Este 23 Este 0 -- -- 59
2019-03-31 16:00:00 11.8 4 Sur 17 Nordeste 0.2 -- -- 61
2019-03-31 15:00:00 11 11 Nordeste 32 Noroeste 0.6 -- -- 61
2019-03-31 14:00:00 10.3 15 Oeste 26 Noroeste 3.6 -- -- 63
2019-03-31 13:00:00 -- 8 Norte 20 Sur 0 -- -- --
2019-03-31 12:00:00 14.1 5 Sur 23 Sur 0 -- -- 50
2019-03-31 11:00:00 12 5 Sur 16 Sudoeste 0 -- -- 57
2019-03-31 10:00:00 7.6 12 Sudoeste 24 Sudoeste 0 -- -- 64
2019-03-31 09:00:00 5 16 Sudoeste 29 Sudoeste 0 -- -- 70
2019-03-31 08:00:00 1 5 Sudoeste 24 Sudoeste 0 -- -- 78
2019-03-31 07:00:00 3.6 11 Sudoeste 16 Sudoeste 0 -- -- 71
2019-03-31 06:00:00 2.1 4 Sur 18 Sur 0 -- -- 72
2019-03-31 05:00:00 3 11 Sudoeste 18 Sudoeste 0 -- -- 74
2019-03-31 03:00:00 3.5 13 Sudoeste 19 Sudoeste 0 -- -- 72
2019-03-31 01:00:00 5.1 9 Sudoeste 19 Sudoeste 0 -- -- 65
2019-03-31 00:00:00 4.9 12 Sudoeste 17 Sudoeste 0 -- -- 67
2019-03-30 23:00:00 5.9 10 Sudoeste 17 Sudoeste 0 -- -- 64
2019-03-30 22:00:00 9.2 9 Sudoeste 27 Sudeste 0 -- -- 55
2019-03-30 21:00:00 10.2 15 Sudeste 35 Sudeste 0 -- -- 53
2019-03-30 20:00:00 12.5 12 Sur 19 Sur 0 -- -- 47
2019-03-30 19:00:00 14.2 8 Sudoeste 18 Oeste 0 -- -- 34
2019-03-30 18:00:00 15.3 5 Norte 16 Noroeste 0 -- -- 30
2019-03-30 17:00:00 15.8 10 Norte 25 Norte 0 -- -- 29
2019-03-30 16:00:00 18 10 Norte 25 Nordeste 0 -- -- 28
2019-03-30 15:00:00 16.4 9 Nordeste 28 Noroeste 0 -- -- 28
2019-03-30 14:00:00 18.1 7 Noroeste 17 Norte 0 -- -- 26
2019-03-30 13:00:00 16.3 9 Sudoeste 18 Oeste 0 -- -- 28
2019-03-30 12:00:00 15.4 6 Noroeste 13 Noroeste 0 -- -- 30
2019-03-30 11:00:00 13.6 3 Noroeste 13 Sudoeste 0 -- -- 35
2019-03-30 10:00:00 10.1 6 Sudoeste 22 Sudoeste 0 -- -- 51
2019-03-30 09:00:00 6.3 15 Sur 29 Sudoeste 0 -- -- 61
2019-03-30 08:00:00 3.7 17 Sudoeste 26 Sudoeste 0 -- -- 68
2019-03-30 07:00:00 2.6 15 Sudoeste 22 Sur 0 -- -- 73
2019-03-30 06:00:00 1.6 10 Sudoeste 18 Sudoeste 0 -- -- 73
2019-03-30 05:00:00 2.6 5 Sudoeste 23 Sudoeste 0 -- -- 58
2019-03-30 04:00:00 3.5 11 Sudoeste 21 Sudoeste 0 -- -- 61
2019-03-30 03:00:00 3.4 14 Sudoeste 30 Sudoeste 0 -- -- 58
2019-03-30 02:00:00 2.9 14 Sudoeste 23 Sudoeste 0 -- -- 59
2019-03-30 01:00:00 3.7 13 Sudoeste 20 Sudoeste 0 -- -- 56
2019-03-30 00:00:00 4.1 12 Sudoeste 23 Sudoeste 0 -- -- 56
2019-03-29 23:00:00 4.7 9 Sudoeste 18 Sudoeste 0 -- -- 55
2019-03-29 22:00:00 7.6 9 Sudoeste 14 Sudoeste 0 -- -- 45
2019-03-29 21:00:00 10 10 Sudoeste 16 Sudoeste 0 -- -- 38
2019-03-29 20:00:00 11.5 8 Sur 21 Sur 0 -- -- 35
2019-03-29 19:00:00 13.7 13 Sur 23 Sur 0 -- -- 32
2019-03-29 18:00:00 15 14 Sudoeste 28 Sudeste 0 -- -- 32
2019-03-29 17:00:00 17.4 8 Sudeste 22 Este 0 -- -- 26
2019-03-29 16:00:00 17.2 5 Este 16 Nordeste 0 -- -- 25
2019-03-29 15:00:00 16.9 8 Este 19 Oeste 0 -- -- 27
2019-03-29 14:00:00 16.7 6 Noroeste 17 Sudeste 0 -- -- 28
2019-03-29 13:00:00 16 5 Sudoeste 22 Sudeste 0 -- -- 26
2019-03-29 12:00:00 15.3 13 Sudeste 27 Sudeste 0 -- -- 30
2019-03-29 11:00:00 14 16 Sudeste 31 Este 0 -- -- 31
2019-03-29 10:00:00 12.6 14 Sudeste 26 Sudeste 0 -- -- 32
2019-03-29 09:00:00 7.3 8 Oeste 17 Oeste 0 -- -- 44
2019-03-29 08:00:00 2.1 12 Oeste 26 Sudoeste 0 -- -- 57
2019-03-29 07:00:00 0.4 12 Oeste 21 Oeste 0 -- -- 62
2019-03-29 06:00:00 0.7 13 Oeste 20 Oeste 0 -- -- 61
2019-03-29 05:00:00 0.4 11 Oeste 18 Oeste 0 -- -- 63
2019-03-29 04:00:00 0.5 7 Sudoeste 16 Sudoeste 0 -- -- 63
2019-03-29 03:00:00 0.8 8 Sudoeste 14 Sudoeste 0 -- -- 64
2019-03-29 02:00:00 2.1 10 Sudoeste 17 Sudoeste 0 -- -- 59
2019-03-29 01:00:00 2.6 12 Oeste 17 Oeste 0 -- -- 59
2019-03-29 00:00:00 3.5 10 Sudoeste 18 Sudoeste 0 -- -- 58
2019-03-28 23:00:00 6.2 13 Sudoeste 23 Sudoeste 0 -- -- 43
2019-03-28 22:00:00 8.4 9 Sudoeste 19 Sur 0 -- -- 40
2019-03-28 21:00:00 9.3 8 Sudoeste 11 Sudoeste 0 -- -- 44
2019-03-28 20:00:00 12.7 4 Sur 10 Norte 0 -- -- 34
2019-03-28 19:00:00 16.1 5 Noroeste 18 Noroeste 0 -- -- 28
2019-03-28 18:00:00 16.9 9 Noroeste 18 Norte 0 -- -- 27
2019-03-28 17:00:00 17.2 8 Noroeste 21 Noroeste 0 -- -- 28
2019-03-28 16:00:00 16.8 7 Norte 23 Noroeste 0 -- -- 28
2019-03-28 15:00:00 16.3 13 Noroeste 29 Norte 0 -- -- 28
2019-03-28 14:00:00 15.7 15 Noroeste 28 Noroeste 0 -- -- 30
2019-03-28 13:00:00 15.6 15 Norte 28 Norte 0 -- -- 30
2019-03-28 12:00:00 15.4 9 Norte 20 Norte 0 -- -- 27
2019-03-28 11:00:00 14.3 3 Norte 11 Sudoeste 0 -- -- 29
2019-03-28 10:00:00 10.6 7 Sur 14 Sudoeste 0 -- -- 38
2019-03-28 09:00:00 4.5 4 Sudeste 15 Sudoeste 0 -- -- 55
2019-03-28 08:00:00 -0.4 3 Sudoeste 21 Sudoeste 0 -- -- 65
2019-03-28 07:00:00 -1.3 8 Oeste 12 Sudoeste 0 -- -- 69
2019-03-28 06:00:00 -1.6 3 Sur 19 Sudoeste 0 -- -- 67
2019-03-28 05:00:00 0 6 Sudoeste 22 Sur 0 -- -- 61
2019-03-28 04:00:00 1.4 13 Oeste 22 Sudoeste 0 -- -- 57
2019-03-28 03:00:00 1.7 12 Sudoeste 20 Sudoeste 0 -- -- 56
2019-03-28 02:00:00 2.2 8 Oeste 22 Sudoeste 0 -- -- 54
2019-03-28 01:00:00 2.3 10 Sudoeste 20 Sudoeste 0 -- -- 53
2019-03-28 00:00:00 3.3 9 Sudoeste 15 Sudoeste 0 -- -- 51
2019-03-27 23:00:00 4 9 Sudoeste 13 Oeste 0 -- -- 48
2019-03-27 22:00:00 5.5 3 Oeste 10 Sudoeste 0 -- -- 47
2019-03-27 21:00:00 8.9 2 Sudoeste 10 Nordeste 0 -- -- 38
2019-03-27 20:00:00 12.5 6 Nordeste 19 Norte 0 -- -- 27
2019-03-27 19:00:00 15.3 11 Norte 27 Norte 0 -- -- 21
2019-03-27 18:00:00 16.2 14 Norte 30 Norte 0 -- -- 21
2019-03-27 17:00:00 17.1 12 Norte 33 Norte 0 -- -- 22
2019-03-27 16:00:00 17.2 15 Norte 27 Noroeste 0 -- -- 23
2019-03-27 15:00:00 17 11 Norte 29 Noroeste 0 -- -- 26
2019-03-27 14:00:00 15.8 15 Noroeste 30 Noroeste 0 -- -- 25
2019-03-27 13:00:00 15.6 13 Norte 27 Noroeste 0 -- -- 25
2019-03-27 12:00:00 14.7 9 Norte 20 Norte 0 -- -- 28
2019-03-27 11:00:00 12.5 5 Norte 13 Nordeste 0 -- -- 35
2019-03-27 10:00:00 9.9 5 Este 15 Oeste 0 -- -- 41
2019-03-27 09:00:00 6.1 10 Sudoeste 18 Sudoeste 0 -- -- 46
2019-03-27 08:00:00 0.9 12 Sudoeste 26 Sudoeste 0 -- -- 60
2019-03-27 07:00:00 3.1 19 Sudoeste 28 Sur 0 -- -- 52
2019-03-27 06:00:00 4.2 10 Sudoeste 23 Sudoeste 0 -- -- 48
2019-03-27 05:00:00 4.3 12 Oeste 26 Oeste 0 -- -- 46
2019-03-27 04:00:00 5.1 15 Oeste 24 Oeste 0 -- -- 43
2019-03-27 03:00:00 4.9 14 Sudoeste 26 Sudoeste 0 -- -- 44
2019-03-27 02:00:00 7 6 Sudoeste 17 Sudoeste 0 -- -- 34
2019-03-27 01:00:00 7.2 4 Noroeste 18 Sudoeste 0 -- -- 37
2019-03-27 00:00:00 5.9 9 Sudoeste 16 Sudoeste 0 -- -- 47
2019-03-26 23:00:00 7.1 4 Sudoeste 15 Oeste 0 -- -- 46
2019-03-26 22:00:00 10.3 7 Oeste 30 Este 0 -- -- 38
2019-03-26 21:00:00 12.4 8 Este 18 Este 0 -- -- 32
2019-03-26 20:00:00 14.2 14 Este 35 Este 0 -- -- 28
2019-03-26 19:00:00 16.8 20 Este 39 Este 0 -- -- 23
2019-03-26 18:00:00 18.3 21 Este 31 Este 0 -- -- 23
2019-03-26 17:00:00 19.7 18 Este 28 Este 0 -- -- 22
2019-03-26 16:00:00 19.2 9 Norte 26 Norte 0 -- -- 21
2019-03-26 15:00:00 17.3 16 Noroeste 31 Noroeste 0 -- -- 33
2019-03-26 14:00:00 16.4 13 Noroeste 28 Noroeste 0 -- -- 37
2019-03-26 13:00:00 15.3 11 Norte 26 Norte 0 -- -- 36
2019-03-26 12:00:00 12.6 10 Norte 22 Norte 0 -- -- 42
2019-03-26 11:00:00 9.6 14 Norte 23 Norte 0 -- -- 48
2019-03-26 10:00:00 5.9 3 Este 6 Nordeste 0 -- -- 63
2019-03-26 09:00:00 1.1 0 Calma 8 Sudoeste 0 -- -- 79
2019-03-26 08:00:00 -3.3 4 Sudoeste 7 Sudoeste 0 -- -- 87
2019-03-26 07:00:00 -4.2 0 Calma 8 Sudoeste 0 -- -- 85
2019-03-26 06:00:00 -3.5 4 Sudoeste 5 Sudoeste 0 -- -- 88
2019-03-26 05:00:00 -2.2 4 Oeste 7 Sudoeste 0 -- -- 86
2019-03-26 04:00:00 -1.5 2 Norte 9 Este 0 -- -- 79
2019-03-26 03:00:00 -1.1 0 Calma 5 Oeste 0 -- -- 77
2019-03-26 02:00:00 0.7 4 Oeste 6 Oeste 0 -- -- 76
2019-03-26 01:00:00 1.5 4 Sudoeste 7 Este 0 -- -- 70
2019-03-26 00:00:00 3.7 6 Sudoeste 12 Oeste 0 -- -- 64
2019-03-25 23:00:00 5.5 6 Sudoeste 14 Norte 0 -- -- 59
2019-03-25 22:00:00 9 6 Norte 14 Nordeste 0 -- -- 47
2019-03-25 21:00:00 10.2 8 Norte 19 Nordeste 0 -- -- 45
2019-03-25 20:00:00 12.1 8 Nordeste 26 Nordeste 0 -- -- 40
2019-03-25 19:00:00 14.9 14 Nordeste 35 Nordeste 0 -- -- 30
2019-03-25 18:00:00 16.1 20 Nordeste 36 Norte 0 -- -- 31
2019-03-25 17:00:00 17.1 18 Nordeste 37 Norte 0 -- -- 33
2019-03-25 16:00:00 17.3 18 Nordeste 41 Nordeste 0 -- -- 31
2019-03-25 15:00:00 17.9 17 Norte 34 Norte 0 -- -- 31
2019-03-25 14:00:00 17.5 15 Norte 30 Norte 0 -- -- 33
2019-03-25 13:00:00 16.8 15 Noroeste 31 Norte 0 -- -- 38
2019-03-25 12:00:00 15.7 9 Norte 20 Norte 0 -- -- 38
2019-03-25 11:00:00 14.1 8 Norte 15 Noroeste 0 -- -- 40
2019-03-25 10:00:00 10.2 0 Calma 9 Este 0 -- -- 52
2019-03-25 09:00:00 6.8 6 Sudoeste 14 Sudoeste 0 -- -- 64
2019-03-25 08:00:00 2 14 Sudoeste 19 Sudoeste 0 -- -- 74
2019-03-25 07:00:00 2.7 12 Sudoeste 23 Oeste 0 -- -- 70
2019-03-25 06:00:00 2.1 13 Sudoeste 25 Sur 0 -- -- 71
2019-03-25 05:00:00 2.8 13 Sudoeste 20 Oeste 0 -- -- 69
2019-03-25 04:00:00 2.9 9 Sudoeste 19 Sudoeste 0 -- -- 68
2019-03-25 03:00:00 2.8 9 Sudoeste 19 Sudoeste 0 -- -- 69
2019-03-25 02:00:00 3 11 Oeste 16 Sudoeste 0 -- -- 68
2019-03-25 01:00:00 3.8 3 Sudeste 14 Sudoeste 0 -- -- 63
2019-03-25 00:00:00 5.2 7 Oeste 19 Sudoeste 0 -- -- 60